Terminal Aerodrome Forecast
Issued by NWS

Home | Current Version | Previous Version | Text Only | Print | Product List | Glossary On
Versions: 1 2 3 4 5 6 7 8 9 10 11 12 13 14 15 16 17 18 19
000
FTUS45 KABQ 212300
TAFGUP
TAF
KGUP 212320Z 2200/2224 24010KT P6SM FEW040 SCT120
     FM220200 VRB06KT P6SM SCT030 BKN120
     FM220700 23007KT P6SM SCT025 BKN090
     FM221100 25008KT P6SM BKN025 BKN080
     FM221800 28015G25KT P6SM SCT030 SCT080=

USA.gov is the U.S. government's official web portal to all federal, state and local government web resources and services.